This is the latest recevied weather packets stored in our database for station/object EW7404. If no packets are shown the sender has not sent any weather packets the latest 10 day(s).
| Time | Temp. | Humidity | Pressure | Rain* | Wind** | Luminosity | Snow |
|---|---|---|---|---|---|---|---|
| 1777434037 | 2.22° C | 71% | 950.6 hPa | 0 mm | - | - | - |
| 1777432215 | 0.56° C | 87% | 950.6 hPa | 0 mm | - | - | - |
| 1777428016 | 0.56° C | 86% | 951.2 hPa | 0.25 mm | - | - | - |
| 1777426816 | 0.56° C | 88% | 951.3 hPa | 0.25 mm | - | - | - |
| 1777425015 | 1.11° C | 78% | 951.4 hPa | 0 mm | - | - | - |
| 1777423217 | 2.78° C | 64% | 951.2 hPa | 0 mm | - | - | - |
| 1777422635 | 2.78° C | 62% | 951.2 hPa | 0 mm | - | - | - |
| 1777420856 | 2.78° C | 62% | 951.4 hPa | 0 mm | - | - | - |
| 1777418436 | 2.78° C | 63% | 951.6 hPa | 0 mm | - | - | - |
| 1777417836 | 2.78° C | 63% | 951.6 hPa | 0 mm | - | - | - |
| 1777410316 | 2.78° C | 65% | 952.2 hPa | 0 mm | - | - | - |
| 1777407315 | 3.33° C | 60% | 952.2 hPa | 0 mm | - | - | - |
| 1777406736 | 3.33° C | 60% | 952.3 hPa | 0 mm | - | - | - |
| 1777405516 | 3.33° C | 66% | 952.3 hPa | 0 mm | - | - | - |
| 1777402515 | 3.33° C | 65% | 952.3 hPa | 6.35 mm | - | - | - |
| 1777395316 | 3.33° C | 64% | 951.6 hPa | 0 mm | - | - | - |
| 1777391735 | 3.33° C | 67% | 951.6 hPa | 0 mm | - | - | - |
| 1777391116 | 3.89° C | 68% | 951.6 hPa | 0 mm | - | - | - |
| 1777389315 | 3.89° C | 70% | 951.6 hPa | 0 mm | - | - | - |
| 1777388115 | 3.89° C | 68% | 951.7 hPa | 0 mm | - | - | - |
| 1777387516 | 3.89° C | 65% | 951.8 hPa | 0 mm | - | - | - |
| 1777386316 | 3.89° C | 66% | 951.8 hPa | 0 mm | - | - | - |
| 1777384515 | 4.44° C | 64% | 952 hPa | 0 mm | - | - | - |
| 1777383915 | 3.89° C | 64% | 952.6 hPa | 0 mm | - | - | - |
| 1777377315 | 3.89° C | 59% | 952.2 hPa | 0.25 mm | - | - | - |
* Rain latest hour (hover to see other rain measurements)
** Current wind speed in m/s (hover to see current wind gust speed)